Time;durP1;ratioP1;P1;durP2;ratioP2;P2;SDS_P1;SDS_P2;PMS_P1;PMS_P2;Temp;Humidity;BMP_temperature;BMP_pressure;BME280_temperature;BME280_humidity;BME280_pressure;Samples;Min_cycle;Max_cycle;Signal;HPM_P1;HPM_P2
2020/12/07 00:09:47;;;;;;;35.92;16.15;;;4.10;99.90;;;;;;6717581;88;20313;-80
2020/12/07 00:19:49;;;;;;;37.78;16.08;;;4.00;99.90;;;;;;6718689;88;20193;-81
2020/12/07 00:29:50;;;;;;;34.60;15.88;;;4.00;99.90;;;;;;6714228;88;20658;-80
2020/12/07 00:39:51;;;;;;;36.83;15.85;;;4.00;99.90;;;;;;6718406;88;20233;-78
2020/12/07 00:49:52;;;;;;;33.78;15.63;;;4.00;99.90;;;;;;6717993;88;20226;-79
2020/12/07 00:59:52;;;;;;;33.75;14.95;;;4.00;99.90;;;;;;6719114;88;20186;-80
2020/12/07 01:09:53;;;;;;;28.62;13.27;;;4.00;99.90;;;;;;6725284;88;20177;-81
2020/12/07 01:19:54;;;;;;;29.50;13.90;;;3.90;99.90;;;;;;6723383;88;20228;-79
2020/12/07 01:29:54;;;;;;;28.23;13.00;;;3.90;99.90;;;;;;6730373;88;20158;-79
2020/12/07 01:39:55;;;;;;;27.65;12.50;;;4.00;99.90;;;;;;6721559;88;20657;-82
2020/12/07 01:49:56;;;;;;;24.17;12.10;;;3.90;99.90;;;;;;6719889;88;20190;-79
2020/12/07 01:59:57;;;;;;;29.30;13.32;;;3.90;99.90;;;;;;6645790;88;20217;-80
2020/12/07 02:09:57;;;;;;;29.37;13.75;;;3.90;99.90;;;;;;6635285;89;20226;-81
2020/12/07 02:19:58;;;;;;;32.00;14.68;;;3.90;99.90;;;;;;6633577;89;20204;-79
2020/12/07 02:29:58;;;;;;;31.25;15.55;;;3.80;99.90;;;;;;6650762;88;20219;-81
2020/12/07 02:39:59;;;;;;;31.52;13.82;;;3.90;99.90;;;;;;6676484;88;20181;-79
2020/12/07 02:49:59;;;;;;;32.60;14.38;;;3.90;99.90;;;;;;6737935;88;20510;-80
2020/12/07 03:10:03;;;;;;;34.70;15.25;;;3.80;99.90;;;;;;6719078;88;20201;-76
2020/12/07 03:20:04;;;;;;;34.10;13.68;;;3.70;99.90;;;;;;6711564;88;20252;-76
2020/12/07 03:30:04;;;;;;;28.05;13.02;;;3.80;99.90;;;;;;6715980;88;20553;-76
2020/12/07 03:40:05;;;;;;;27.23;12.43;;;3.70;99.90;;;;;;6717153;88;20194;-75
2020/12/07 03:50:05;;;;;;;24.17;11.52;;;3.80;99.90;;;;;;6713899;88;20206;-75
2020/12/07 04:00:06;;;;;;;23.98;11.25;;;3.70;99.90;;;;;;6716993;88;20260;-76
2020/12/07 04:10:07;;;;;;;20.80;10.15;;;3.70;99.90;;;;;;6718313;88;20213;-76
2020/12/07 04:20:07;;;;;;;20.90;10.75;;;3.70;99.90;;;;;;6698299;88;21038;-76
2020/12/07 04:30:08;;;;;;;18.45;10.15;;;3.70;99.90;;;;;;6709973;88;20197;-77
2020/12/07 04:40:09;;;;;;;17.40;9.40;;;3.70;99.90;;;;;;6722183;88;20175;-77
2020/12/07 04:50:10;;;;;;;20.42;10.05;;;3.70;99.90;;;;;;6705175;88;20217;-77
2020/12/07 05:00:11;;;;;;;15.63;7.87;;;3.70;99.90;;;;;;6709620;88;20681;-76
2020/12/07 05:10:14;;;;;;;15.82;8.27;;;3.70;99.90;;;;;;6711809;88;20992;-76
2020/12/07 05:20:15;;;;;;;16.15;7.62;;;3.70;99.90;;;;;;6700188;88;20739;-77
2020/12/07 05:30:23;;;;;;;15.20;7.87;;;3.90;99.90;;;;;;6713692;88;20356;-76
2020/12/07 05:40:24;;;;;;;15.43;7.65;;;3.90;99.90;;;;;;6714901;88;20605;-76
2020/12/07 05:50:26;;;;;;;17.35;7.90;;;3.70;99.90;;;;;;6703203;88;20198;-76
2020/12/07 06:00:30;;;;;;;16.48;7.75;;;3.90;99.90;;;;;;6701371;88;20203;-75
2020/12/07 06:10:37;;;;;;;13.52;7.32;;;3.90;99.90;;;;;;6717130;88;20645;-76
2020/12/07 06:20:38;;;;;;;14.50;7.28;;;3.90;99.90;;;;;;6716804;88;20387;-75
2020/12/07 06:30:39;;;;;;;15.15;7.45;;;3.90;99.90;;;;;;6722342;88;20198;-76
2020/12/07 06:40:40;;;;;;;11.98;6.70;;;3.90;99.90;;;;;;6716558;88;20259;-75
2020/12/07 06:50:44;;;;;;;11.60;6.55;;;3.90;99.90;;;;;;6710828;88;20181;-76
2020/12/07 07:00:44;;;;;;;10.48;5.55;;;4.00;99.90;;;;;;6713808;88;20301;-74
2020/12/07 07:10:45;;;;;;;10.23;5.05;;;4.00;99.90;;;;;;6707452;88;20381;-77
2020/12/07 07:20:46;;;;;;;8.30;4.62;;;4.10;99.90;;;;;;6719099;88;20202;-76
2020/12/07 07:30:46;;;;;;;7.43;3.97;;;4.00;99.90;;;;;;6698941;88;20195;-77
2020/12/07 07:40:47;;;;;;;8.35;4.65;;;4.20;99.90;;;;;;6704868;88;20192;-76
2020/12/07 08:21:40;;;;;;;9.23;4.40;;;4.20;99.90;;;;;;6710471;88;20200;-75
2020/12/07 08:31:42;;;;;;;6.82;3.67;;;4.20;99.90;;;;;;6716827;88;20183;-75
2020/12/07 08:41:43;;;;;;;6.32;3.42;;;4.20;99.90;;;;;;6713168;88;20210;-75
2020/12/07 08:51:45;;;;;;;6.43;3.80;;;4.30;99.90;;;;;;6714108;88;20210;-75
2020/12/07 09:01:45;;;;;;;6.05;3.45;;;4.40;99.90;;;;;;6710001;77;20209;-75
2020/12/07 09:11:46;;;;;;;8.95;3.78;;;4.40;99.90;;;;;;6687399;88;20243;-75
2020/12/07 09:21:47;;;;;;;7.82;4.28;;;4.40;99.90;;;;;;6685266;88;20204;-76
2020/12/07 09:31:47;;;;;;;7.57;4.32;;;4.40;99.90;;;;;;6685215;88;20198;-76
2020/12/07 09:41:48;;;;;;;8.02;4.62;;;4.50;99.90;;;;;;6684174;88;20225;-74
2020/12/07 09:51:48;;;;;;;9.10;4.50;;;4.50;99.90;;;;;;6689858;88;20198;-72
2020/12/07 10:01:49;;;;;;;9.43;5.00;;;4.70;99.90;;;;;;6686259;88;20220;-74
2020/12/07 10:11:49;;;;;;;10.02;5.05;;;4.80;99.90;;;;;;6687735;88;20262;-75
2020/12/07 10:21:50;;;;;;;8.65;4.78;;;5.00;99.90;;;;;;6688474;88;20211;-73
2020/12/07 10:31:50;;;;;;;9.43;5.22;;;5.10;99.90;;;;;;6687502;88;20255;-77
2020/12/07 10:41:51;;;;;;;10.80;5.22;;;5.20;99.90;;;;;;6687716;88;20194;-76
2020/12/07 10:51:51;;;;;;;11.00;4.95;;;5.10;99.90;;;;;;6692674;88;20210;-75
2020/12/07 11:01:53;;;;;;;12.60;5.28;;;5.00;99.90;;;;;;6682693;88;20260;-77
2020/12/07 11:11:59;;;;;;;11.27;5.72;;;4.90;99.90;;;;;;6687179;88;20690;-76
2020/12/07 11:22:00;;;;;;;10.48;4.85;;;4.90;99.90;;;;;;6685879;88;20219;-74
2020/12/07 11:32:01;;;;;;;10.67;5.60;;;5.00;99.90;;;;;;6682084;88;20641;-75
2020/12/07 11:42:20;;;;;;;11.68;5.80;;;5.20;99.90;;;;;;6687539;88;20526;-76
2020/12/07 11:52:21;;;;;;;13.50;6.28;;;5.40;99.90;;;;;;6684697;88;20196;-75
2020/12/07 12:02:21;;;;;;;10.25;5.80;;;5.50;99.90;;;;;;6686862;88;20195;-76
2020/12/07 12:12:22;;;;;;;11.30;6.30;;;5.60;99.90;;;;;;6682135;88;20292;-75
2020/12/07 12:22:22;;;;;;;9.95;5.87;;;5.80;99.90;;;;;;6687023;88;20305;-76
2020/12/07 12:32:23;;;;;;;10.40;5.78;;;6.00;99.90;;;;;;6685878;88;20204;-76
2020/12/07 12:42:23;;;;;;;10.93;6.10;;;6.30;99.90;;;;;;6684737;88;20240;-74
2020/12/07 12:52:24;;;;;;;11.00;5.15;;;6.30;99.90;;;;;;6683663;88;20670;-74
2020/12/07 13:02:24;;;;;;;9.05;4.60;;;6.40;99.90;;;;;;6679802;88;20296;-73
2020/12/07 13:12:25;;;;;;;9.35;4.55;;;6.40;99.90;;;;;;6669621;88;20322;-74
2020/12/07 13:22:34;;;;;;;6.37;3.50;;;6.40;99.90;;;;;;6680615;88;20211;-74
2020/12/07 13:32:35;;;;;;;7.72;4.12;;;6.30;99.90;;;;;;6682419;88;20268;-75
2020/12/07 13:42:36;;;;;;;7.18;3.55;;;6.10;99.90;;;;;;6682602;88;20195;-73
2020/12/07 13:52:38;;;;;;;6.90;3.78;;;6.10;99.90;;;;;;6679767;88;20271;-74
2020/12/07 14:02:39;;;;;;;10.02;4.47;;;6.00;99.90;;;;;;6679589;89;20302;-74
2020/12/07 14:12:39;;;;;;;8.18;4.00;;;5.80;99.90;;;;;;6679283;88;20321;-75
2020/12/07 14:22:55;;;;;;;8.68;3.90;;;5.80;99.90;;;;;;6680740;89;20259;-71
2020/12/07 14:43:15;;;;;;;8.38;3.50;;;5.70;99.90;;;;;;6676340;88;20179;-72
2020/12/07 14:53:21;;;;;;;6.30;2.90;;;5.60;99.90;;;;;;6679997;88;20215;-72
2020/12/07 15:23:44;;;;;;;12.63;4.82;;;5.40;99.90;;;;;;6709149;88;20195;-77
2020/12/07 15:33:45;;;;;;;8.85;3.72;;;5.30;99.90;;;;;;6721207;88;20564;-80
2020/12/07 15:43:47;;;;;;;7.20;3.17;;;5.20;99.90;;;;;;6726498;88;20341;-80
2020/12/07 15:53:47;;;;;;;7.25;3.15;;;5.00;99.90;;;;;;6731213;88;20211;-78
2020/12/07 16:03:48;;;;;;;5.87;3.22;;;4.60;99.90;;;;;;6737558;88;20217;-77
2020/12/07 16:13:48;;;;;;;7.95;3.67;;;4.60;99.90;;;;;;6741418;88;20600;-77
2020/12/07 16:23:49;;;;;;;6.60;3.22;;;4.50;99.90;;;;;;6741834;88;20196;-77
2020/12/07 16:33:49;;;;;;;6.93;3.30;;;4.50;99.90;;;;;;6739510;88;20196;-75
2020/12/07 16:43:50;;;;;;;6.87;4.00;;;4.30;99.90;;;;;;6737263;88;20210;-77
2020/12/07 16:53:50;;;;;;;8.82;4.28;;;4.40;99.90;;;;;;6740296;88;20217;-77
2020/12/07 17:03:51;;;;;;;7.47;4.47;;;4.10;99.90;;;;;;6738787;87;21499;-76
2020/12/07 17:13:52;;;;;;;8.20;4.60;;;4.50;99.90;;;;;;6742770;88;20361;-77
2020/12/07 17:23:53;;;;;;;8.18;4.87;;;4.50;99.90;;;;;;6743868;88;20173;-76
2020/12/07 17:33:54;;;;;;;10.65;5.20;;;4.40;99.90;;;;;;6740016;88;20308;-76
2020/12/07 17:43:54;;;;;;;9.00;5.15;;;4.40;99.90;;;;;;6747880;88;20290;-78
2020/12/07 17:53:56;;;;;;;12.30;6.20;;;4.50;99.90;;;;;;6751929;88;20205;-79
2020/12/07 18:03:57;;;;;;;10.88;5.90;;;4.40;99.90;;;;;;6750307;88;20220;-80
2020/12/07 18:13:57;;;;;;;11.93;5.95;;;4.20;99.90;;;;;;6716221;88;20300;-80
2020/12/07 18:23:58;;;;;;;10.75;5.10;;;4.10;99.90;;;;;;6750483;88;20208;-78
2020/12/07 18:33:59;;;;;;;10.88;5.25;;;4.20;99.90;;;;;;6751863;88;20232;-79
2020/12/07 18:43:59;;;;;;;7.43;4.30;;;4.10;99.90;;;;;;6743021;88;20189;-79
2020/12/07 18:54:00;;;;;;;8.85;4.30;;;4.10;99.90;;;;;;6744675;88;20959;-78
2020/12/07 19:04:01;;;;;;;11.25;5.15;;;4.20;99.90;;;;;;6747120;88;20235;-78
2020/12/07 19:14:01;;;;;;;9.85;4.90;;;4.10;99.90;;;;;;6748933;87;20499;-78
2020/12/07 19:24:02;;;;;;;9.93;5.07;;;3.90;99.90;;;;;;6742883;88;20261;-78
2020/12/07 19:34:03;;;;;;;10.95;5.30;;;3.90;99.90;;;;;;6749031;88;20217;-77
2020/12/07 19:44:07;;;;;;;13.18;5.65;;;3.90;99.90;;;;;;6744852;88;20198;-77
2020/12/07 19:54:07;;;;;;;14.68;6.50;;;3.90;99.90;;;;;;6742017;88;20174;-78
2020/12/07 20:04:08;;;;;;;16.15;7.05;;;3.70;99.90;;;;;;6741960;88;20217;-79
2020/12/07 20:14:09;;;;;;;16.48;7.95;;;3.70;99.90;;;;;;6744007;88;20200;-77
2020/12/07 20:24:09;;;;;;;17.80;8.18;;;3.60;99.90;;;;;;6742273;88;20594;-77
2020/12/07 20:34:10;;;;;;;18.75;9.43;;;3.40;99.90;;;;;;6740812;88;20207;-77
2020/12/07 20:44:11;;;;;;;20.62;9.45;;;3.20;99.90;;;;;;6737962;88;20246;-78
2020/12/07 20:54:12;;;;;;;21.60;9.45;;;3.10;99.90;;;;;;6736238;88;20219;-76
2020/12/07 21:04:12;;;;;;;21.42;10.40;;;3.20;99.90;;;;;;6742515;88;20256;-77
2020/12/07 21:14:13;;;;;;;22.42;10.38;;;3.10;99.90;;;;;;6742652;87;20220;-77
2020/12/07 21:24:13;;;;;;;28.00;11.95;;;2.70;99.90;;;;;;6740457;88;20181;-76
2020/12/07 21:34:14;;;;;;;24.05;10.80;;;2.60;99.90;;;;;;6740004;88;20205;-76
2020/12/07 21:44:15;;;;;;;24.42;11.85;;;2.50;99.90;;;;;;6735469;88;20278;-76
2020/12/07 21:54:15;;;;;;;23.33;10.88;;;2.40;99.90;;;;;;6732017;88;20234;-77
2020/12/07 22:04:16;;;;;;;25.65;11.98;;;2.40;99.90;;;;;;6738791;88;20300;-77
2020/12/07 22:14:16;;;;;;;23.45;11.15;;;2.30;99.90;;;;;;6735455;88;20367;-78
2020/12/07 22:24:17;;;;;;;25.60;10.90;;;2.30;99.90;;;;;;6735327;88;20760;-77
2020/12/07 22:34:17;;;;;;;23.20;10.40;;;2.50;99.90;;;;;;6738201;88;20770;-77
2020/12/07 22:44:18;;;;;;;21.83;10.00;;;2.70;99.90;;;;;;6725572;88;20185;-76
2020/12/07 22:54:18;;;;;;;20.55;9.90;;;2.80;99.90;;;;;;6735552;88;20193;-77
2020/12/07 23:04:19;;;;;;;20.88;10.63;;;2.60;99.90;;;;;;6743411;88;20193;-77
2020/12/07 23:14:19;;;;;;;23.95;10.80;;;2.70;99.90;;;;;;6745208;88;20205;-77
2020/12/07 23:24:20;;;;;;;19.98;9.95;;;2.70;99.90;;;;;;6754417;88;20178;-77
2020/12/07 23:34:20;;;;;;;17.30;8.83;;;2.90;99.90;;;;;;6754118;88;20246;-79
2020/12/07 23:44:21;;;;;;;20.12;9.63;;;3.00;99.90;;;;;;6755510;88;20518;-77
2020/12/07 23:54:22;;;;;;;15.45;8.32;;;3.20;99.90;;;;;;6753247;88;20215;-77
